sensor_id;sensor_type;location;lat;lon;timestamp;temperature;humidity
52211;DHT22;38179;52.756;6.906;2024-03-22T00:00:07;9.00;99.90
52211;DHT22;38179;52.756;6.906;2024-03-22T00:02:37;9.00;99.90
52211;DHT22;38179;52.756;6.906;2024-03-22T00:05:03;9.00;99.90
52211;DHT22;38179;52.756;6.906;2024-03-22T00:07:29;9.10;99.90
52211;DHT22;38179;52.756;6.906;2024-03-22T00:09:55;9.10;99.90
52211;DHT22;38179;52.756;6.906;2024-03-22T00:12:20;9.10;99.90
52211;DHT22;38179;52.756;6.906;2024-03-22T00:14:46;9.10;99.90
52211;DHT22;38179;52.756;6.906;2024-03-22T00:17:12;9.10;99.90
52211;DHT22;38179;52.756;6.906;2024-03-22T00:19:38;9.10;99.90
52211;DHT22;38179;52.756;6.906;2024-03-22T00:22:03;9.20;99.90
52211;DHT22;38179;52.756;6.906;2024-03-22T00:24:29;9.20;99.90
52211;DHT22;38179;52.756;6.906;2024-03-22T00:26:55;9.20;99.90
52211;DHT22;38179;52.756;6.906;2024-03-22T00:29:20;9.20;99.90
52211;DHT22;38179;52.756;6.906;2024-03-22T00:31:46;9.20;99.90
52211;DHT22;38179;52.756;6.906;2024-03-22T00:34:11;9.20;99.90
52211;DHT22;38179;52.756;6.906;2024-03-22T00:36:37;9.20;99.90
52211;DHT22;38179;52.756;6.906;2024-03-22T00:39:03;9.30;99.90
52211;DHT22;38179;52.756;6.906;2024-03-22T00:41:29;9.30;99.90
52211;DHT22;38179;52.756;6.906;2024-03-22T00:43:54;9.30;99.90
52211;DHT22;38179;52.756;6.906;2024-03-22T00:46:20;9.30;99.90
52211;DHT22;38179;52.756;6.906;2024-03-22T00:48:46;9.30;99.90
52211;DHT22;38179;52.756;6.906;2024-03-22T00:51:12;9.30;99.90
52211;DHT22;38179;52.756;6.906;2024-03-22T00:53:37;9.30;99.90
52211;DHT22;38179;52.756;6.906;2024-03-22T00:56:04;9.30;99.90
52211;DHT22;38179;52.756;6.906;2024-03-22T00:58:29;9.30;99.90
52211;DHT22;38179;52.756;6.906;2024-03-22T01:00:55;9.40;99.90
52211;DHT22;38179;52.756;6.906;2024-03-22T01:03:21;9.40;99.90
52211;DHT22;38179;52.756;6.906;2024-03-22T01:05:47;9.40;99.90
52211;DHT22;38179;52.756;6.906;2024-03-22T01:08:13;9.40;99.90
52211;DHT22;38179;52.756;6.906;2024-03-22T01:10:39;9.40;99.90
52211;DHT22;38179;52.756;6.906;2024-03-22T01:13:05;9.40;99.90
52211;DHT22;38179;52.756;6.906;2024-03-22T01:26:21;9.50;99.90
52211;DHT22;38179;52.756;6.906;2024-03-22T01:28:46;9.50;99.90
52211;DHT22;38179;52.756;6.906;2024-03-22T01:31:12;9.50;99.90
52211;DHT22;38179;52.756;6.906;2024-03-22T01:33:38;9.50;99.90
52211;DHT22;38179;52.756;6.906;2024-03-22T01:36:04;9.50;99.90
52211;DHT22;38179;52.756;6.906;2024-03-22T01:38:31;9.50;99.90
52211;DHT22;38179;52.756;6.906;2024-03-22T01:40:56;9.50;99.90
52211;DHT22;38179;52.756;6.906;2024-03-22T01:43:22;9.50;99.90
52211;DHT22;38179;52.756;6.906;2024-03-22T01:45:48;9.60;99.90
52211;DHT22;38179;52.756;6.906;2024-03-22T01:48:14;9.60;99.90
52211;DHT22;38179;52.756;6.906;2024-03-22T01:50:40;9.60;99.90
52211;DHT22;38179;52.756;6.906;2024-03-22T01:53:06;9.60;99.90
52211;DHT22;38179;52.756;6.906;2024-03-22T01:55:31;9.60;99.90
52211;DHT22;38179;52.756;6.906;2024-03-22T01:57:57;9.60;99.90
52211;DHT22;38179;52.756;6.906;2024-03-22T02:00:23;9.60;99.90
52211;DHT22;38179;52.756;6.906;2024-03-22T02:02:49;9.60;99.90
52211;DHT22;38179;52.756;6.906;2024-03-22T02:05:16;9.70;99.90
52211;DHT22;38179;52.756;6.906;2024-03-22T02:10:22;9.60;99.90
52211;DHT22;38179;52.756;6.906;2024-03-22T02:12:48;9.60;99.90
52211;DHT22;38179;52.756;6.906;2024-03-22T02:15:14;9.60;99.90
52211;DHT22;38179;52.756;6.906;2024-03-22T02:17:39;9.60;99.90
52211;DHT22;38179;52.756;6.906;2024-03-22T02:20:05;9.60;99.90
52211;DHT22;38179;52.756;6.906;2024-03-22T02:22:31;9.70;99.90
52211;DHT22;38179;52.756;6.906;2024-03-22T02:25:00;9.70;99.90
52211;DHT22;38179;52.756;6.906;2024-03-22T02:27:26;9.70;99.90
52211;DHT22;38179;52.756;6.906;2024-03-22T02:29:51;9.70;99.90
52211;DHT22;38179;52.756;6.906;2024-03-22T02:32:17;9.70;99.90
52211;DHT22;38179;52.756;6.906;2024-03-22T02:34:43;9.70;99.90
52211;DHT22;38179;52.756;6.906;2024-03-22T02:37:08;9.80;99.90
52211;DHT22;38179;52.756;6.906;2024-03-22T02:39:34;9.70;99.90
52211;DHT22;38179;52.756;6.906;2024-03-22T02:42:00;9.80;99.90
52211;DHT22;38179;52.756;6.906;2024-03-22T02:44:25;9.80;99.90
52211;DHT22;38179;52.756;6.906;2024-03-22T02:46:51;9.80;99.90
52211;DHT22;38179;52.756;6.906;2024-03-22T02:49:16;9.80;99.90
52211;DHT22;38179;52.756;6.906;2024-03-22T02:51:42;9.80;99.90
52211;DHT22;38179;52.756;6.906;2024-03-22T02:54:08;9.80;99.90
52211;DHT22;38179;52.756;6.906;2024-03-22T02:56:33;9.80;99.90
52211;DHT22;38179;52.756;6.906;2024-03-22T02:58:59;9.90;99.90
52211;DHT22;38179;52.756;6.906;2024-03-22T03:01:25;9.80;99.90
52211;DHT22;38179;52.756;6.906;2024-03-22T03:03:50;9.80;99.90
52211;DHT22;38179;52.756;6.906;2024-03-22T03:06:16;9.90;99.90
52211;DHT22;38179;52.756;6.906;2024-03-22T03:08:43;9.80;99.90
52211;DHT22;38179;52.756;6.906;2024-03-22T03:11:09;9.90;99.90
52211;DHT22;38179;52.756;6.906;2024-03-22T03:13:34;9.90;99.90
52211;DHT22;38179;52.756;6.906;2024-03-22T03:16:02;9.90;99.90
52211;DHT22;38179;52.756;6.906;2024-03-22T03:18:27;9.90;99.90
52211;DHT22;38179;52.756;6.906;2024-03-22T03:20:53;9.90;99.90
52211;DHT22;38179;52.756;6.906;2024-03-22T03:23:19;9.90;99.90
52211;DHT22;38179;52.756;6.906;2024-03-22T03:25:45;9.90;99.90
52211;DHT22;38179;52.756;6.906;2024-03-22T03:28:11;10.00;99.90
52211;DHT22;38179;52.756;6.906;2024-03-22T03:30:38;9.90;99.90
52211;DHT22;38179;52.756;6.906;2024-03-22T03:33:04;9.90;99.90
52211;DHT22;38179;52.756;6.906;2024-03-22T03:35:30;10.00;99.90
52211;DHT22;38179;52.756;6.906;2024-03-22T03:37:56;10.00;99.90
52211;DHT22;38179;52.756;6.906;2024-03-22T03:40:22;10.00;99.90
52211;DHT22;38179;52.756;6.906;2024-03-22T03:42:50;10.00;99.90
52211;DHT22;38179;52.756;6.906;2024-03-22T03:45:16;10.00;99.90
52211;DHT22;38179;52.756;6.906;2024-03-22T03:47:42;10.00;99.90
52211;DHT22;38179;52.756;6.906;2024-03-22T03:50:08;10.00;99.90
52211;DHT22;38179;52.756;6.906;2024-03-22T03:52:33;10.00;99.90
52211;DHT22;38179;52.756;6.906;2024-03-22T03:54:59;10.00;99.90
52211;DHT22;38179;52.756;6.906;2024-03-22T03:57:25;10.00;99.90
52211;DHT22;38179;52.756;6.906;2024-03-22T03:59:51;10.00;99.90
52211;DHT22;38179;52.756;6.906;2024-03-22T04:02:16;10.00;99.90
52211;DHT22;38179;52.756;6.906;2024-03-22T04:04:42;10.00;99.90
52211;DHT22;38179;52.756;6.906;2024-03-22T04:07:08;10.00;99.90
52211;DHT22;38179;52.756;6.906;2024-03-22T04:09:34;10.00;99.90
52211;DHT22;38179;52.756;6.906;2024-03-22T04:12:00;10.00;99.90
52211;DHT22;38179;52.756;6.906;2024-03-22T04:14:26;10.00;99.90
52211;DHT22;38179;52.756;6.906;2024-03-22T04:16:52;10.00;99.90
52211;DHT22;38179;52.756;6.906;2024-03-22T04:19:20;10.00;99.90
52211;DHT22;38179;52.756;6.906;2024-03-22T04:21:46;10.00;99.90
52211;DHT22;38179;52.756;6.906;2024-03-22T04:24:12;10.00;99.90
52211;DHT22;38179;52.756;6.906;2024-03-22T04:26:37;10.10;99.90
52211;DHT22;38179;52.756;6.906;2024-03-22T04:29:03;10.00;99.90
52211;DHT22;38179;52.756;6.906;2024-03-22T04:31:29;10.00;99.90
52211;DHT22;38179;52.756;6.906;2024-03-22T04:33:54;10.00;99.90
52211;DHT22;38179;52.756;6.906;2024-03-22T04:36:20;10.10;99.90
52211;DHT22;38179;52.756;6.906;2024-03-22T04:38:46;10.00;99.90
52211;DHT22;38179;52.756;6.906;2024-03-22T04:41:11;10.10;99.90
52211;DHT22;38179;52.756;6.906;2024-03-22T04:43:37;10.10;99.90
52211;DHT22;38179;52.756;6.906;2024-03-22T04:46:03;10.10;99.90
52211;DHT22;38179;52.756;6.906;2024-03-22T04:48:29;10.10;99.90
52211;DHT22;38179;52.756;6.906;2024-03-22T04:50:54;10.20;99.90
52211;DHT22;38179;52.756;6.906;2024-03-22T04:53:20;10.20;99.90
52211;DHT22;38179;52.756;6.906;2024-03-22T04:55:47;10.20;99.90
52211;DHT22;38179;52.756;6.906;2024-03-22T04:58:19;10.20;99.90
52211;DHT22;38179;52.756;6.906;2024-03-22T05:00:45;10.20;99.90
52211;DHT22;38179;52.756;6.906;2024-03-22T05:03:11;10.10;99.90
52211;DHT22;38179;52.756;6.906;2024-03-22T05:05:38;10.20;99.90
52211;DHT22;38179;52.756;6.906;2024-03-22T05:08:04;10.20;99.90
52211;DHT22;38179;52.756;6.906;2024-03-22T05:10:30;10.20;99.90
52211;DHT22;38179;52.756;6.906;2024-03-22T05:12:56;10.20;99.90
52211;DHT22;38179;52.756;6.906;2024-03-22T05:15:22;10.20;99.90
52211;DHT22;38179;52.756;6.906;2024-03-22T05:17:49;10.20;99.90
52211;DHT22;38179;52.756;6.906;2024-03-22T05:20:14;10.20;99.90
52211;DHT22;38179;52.756;6.906;2024-03-22T05:22:41;10.20;99.90
52211;DHT22;38179;52.756;6.906;2024-03-22T05:25:08;10.20;99.90
52211;DHT22;38179;52.756;6.906;2024-03-22T05:27:34;10.20;99.90
52211;DHT22;38179;52.756;6.906;2024-03-22T05:30:00;10.20;99.90
52211;DHT22;38179;52.756;6.906;2024-03-22T05:32:26;10.20;99.90
52211;DHT22;38179;52.756;6.906;2024-03-22T05:34:54;10.20;99.90
52211;DHT22;38179;52.756;6.906;2024-03-22T05:37:20;10.20;99.90
52211;DHT22;38179;52.756;6.906;2024-03-22T05:39:46;10.20;99.90
52211;DHT22;38179;52.756;6.906;2024-03-22T05:42:11;10.20;99.90
52211;DHT22;38179;52.756;6.906;2024-03-22T05:44:37;10.30;99.90
52211;DHT22;38179;52.756;6.906;2024-03-22T05:47:03;10.20;99.90
52211;DHT22;38179;52.756;6.906;2024-03-22T05:49:28;10.30;99.90
52211;DHT22;38179;52.756;6.906;2024-03-22T05:51:55;10.20;99.90
52211;DHT22;38179;52.756;6.906;2024-03-22T05:54:20;10.20;99.90
52211;DHT22;38179;52.756;6.906;2024-03-22T05:56:46;10.20;99.90
52211;DHT22;38179;52.756;6.906;2024-03-22T05:59:12;10.20;99.90
52211;DHT22;38179;52.756;6.906;2024-03-22T06:01:37;10.20;99.90
52211;DHT22;38179;52.756;6.906;2024-03-22T06:04:06;10.20;99.90
52211;DHT22;38179;52.756;6.906;2024-03-22T06:06:33;10.20;99.90
52211;DHT22;38179;52.756;6.906;2024-03-22T06:08:59;10.20;99.90
52211;DHT22;38179;52.756;6.906;2024-03-22T06:11:28;10.10;99.90
52211;DHT22;38179;52.756;6.906;2024-03-22T06:13:54;10.10;99.90
52211;DHT22;38179;52.756;6.906;2024-03-22T06:16:21;10.20;99.90
52211;DHT22;38179;52.756;6.906;2024-03-22T06:18:47;10.10;99.90
52211;DHT22;38179;52.756;6.906;2024-03-22T06:21:13;10.10;99.90
52211;DHT22;38179;52.756;6.906;2024-03-22T06:23:40;10.10;99.90
52211;DHT22;38179;52.756;6.906;2024-03-22T06:26:06;10.00;99.90
52211;DHT22;38179;52.756;6.906;2024-03-22T06:28:32;10.00;99.90
52211;DHT22;38179;52.756;6.906;2024-03-22T06:30:58;10.00;99.90
52211;DHT22;38179;52.756;6.906;2024-03-22T06:33:24;10.10;99.90
52211;DHT22;38179;52.756;6.906;2024-03-22T06:35:49;10.10;99.90
52211;DHT22;38179;52.756;6.906;2024-03-22T06:38:15;10.00;99.90
52211;DHT22;38179;52.756;6.906;2024-03-22T06:40:41;10.00;99.90
52211;DHT22;38179;52.756;6.906;2024-03-22T06:43:07;10.00;99.90
52211;DHT22;38179;52.756;6.906;2024-03-22T06:45:32;10.00;99.90
52211;DHT22;38179;52.756;6.906;2024-03-22T06:47:58;10.00;99.90
52211;DHT22;38179;52.756;6.906;2024-03-22T06:50:24;10.00;99.90
52211;DHT22;38179;52.756;6.906;2024-03-22T06:52:56;10.00;99.90
52211;DHT22;38179;52.756;6.906;2024-03-22T06:55:22;10.00;99.90
52211;DHT22;38179;52.756;6.906;2024-03-22T06:57:49;10.00;99.90
52211;DHT22;38179;52.756;6.906;2024-03-22T07:00:16;10.00;99.90
52211;DHT22;38179;52.756;6.906;2024-03-22T07:02:42;10.00;99.90
52211;DHT22;38179;52.756;6.906;2024-03-22T07:05:09;10.00;99.90
52211;DHT22;38179;52.756;6.906;2024-03-22T07:07:37;10.00;99.90
52211;DHT22;38179;52.756;6.906;2024-03-22T07:10:04;10.00;99.90
52211;DHT22;38179;52.756;6.906;2024-03-22T07:12:33;10.00;99.90
52211;DHT22;38179;52.756;6.906;2024-03-22T07:15:00;10.00;99.90
52211;DHT22;38179;52.756;6.906;2024-03-22T07:17:26;10.00;99.90
52211;DHT22;38179;52.756;6.906;2024-03-22T07:19:52;10.00;99.90
52211;DHT22;38179;52.756;6.906;2024-03-22T07:22:19;10.00;99.90
52211;DHT22;38179;52.756;6.906;2024-03-22T07:24:45;9.90;99.90
52211;DHT22;38179;52.756;6.906;2024-03-22T07:27:11;9.90;99.90
52211;DHT22;38179;52.756;6.906;2024-03-22T07:29:37;10.00;99.90
52211;DHT22;38179;52.756;6.906;2024-03-22T07:32:03;9.90;99.90
52211;DHT22;38179;52.756;6.906;2024-03-22T07:34:29;10.00;99.90
52211;DHT22;38179;52.756;6.906;2024-03-22T07:36:55;9.90;99.90
52211;DHT22;38179;52.756;6.906;2024-03-22T07:39:21;9.90;99.90
52211;DHT22;38179;52.756;6.906;2024-03-22T07:41:46;9.90;99.90
52211;DHT22;38179;52.756;6.906;2024-03-22T07:44:12;9.90;99.90
52211;DHT22;38179;52.756;6.906;2024-03-22T07:46:38;9.90;99.90
52211;DHT22;38179;52.756;6.906;2024-03-22T07:49:03;10.00;99.90
52211;DHT22;38179;52.756;6.906;2024-03-22T07:51:30;9.90;99.90
52211;DHT22;38179;52.756;6.906;2024-03-22T07:53:56;9.90;99.90
52211;DHT22;38179;52.756;6.906;2024-03-22T07:56:21;9.90;99.90
52211;DHT22;38179;52.756;6.906;2024-03-22T07:58:47;10.00;99.90
52211;DHT22;38179;52.756;6.906;2024-03-22T08:01:13;9.90;99.90
52211;DHT22;38179;52.756;6.906;2024-03-22T08:03:39;10.00;99.90
52211;DHT22;38179;52.756;6.906;2024-03-22T08:06:05;10.00;99.90
52211;DHT22;38179;52.756;6.906;2024-03-22T08:08:30;10.00;99.90
52211;DHT22;38179;52.756;6.906;2024-03-22T08:10:56;10.00;99.90
52211;DHT22;38179;52.756;6.906;2024-03-22T08:13:22;10.00;99.90
52211;DHT22;38179;52.756;6.906;2024-03-22T08:15:47;10.00;99.90
52211;DHT22;38179;52.756;6.906;2024-03-22T08:18:13;10.00;99.90
52211;DHT22;38179;52.756;6.906;2024-03-22T08:20:39;9.90;99.90
52211;DHT22;38179;52.756;6.906;2024-03-22T08:23:05;10.00;99.90
52211;DHT22;38179;52.756;6.906;2024-03-22T08:25:31;10.00;99.90
52211;DHT22;38179;52.756;6.906;2024-03-22T08:27:57;10.00;99.90
52211;DHT22;38179;52.756;6.906;2024-03-22T08:30:24;10.00;99.90
52211;DHT22;38179;52.756;6.906;2024-03-22T08:32:51;10.00;99.90
52211;DHT22;38179;52.756;6.906;2024-03-22T08:35:16;10.00;99.90
52211;DHT22;38179;52.756;6.906;2024-03-22T08:37:42;10.00;99.90
52211;DHT22;38179;52.756;6.906;2024-03-22T08:40:09;10.00;99.90
52211;DHT22;38179;52.756;6.906;2024-03-22T08:42:36;10.00;99.90
52211;DHT22;38179;52.756;6.906;2024-03-22T08:45:02;10.00;99.90
52211;DHT22;38179;52.756;6.906;2024-03-22T08:47:30;10.00;99.90
52211;DHT22;38179;52.756;6.906;2024-03-22T08:49:56;10.00;99.90
52211;DHT22;38179;52.756;6.906;2024-03-22T08:52:23;10.00;99.90
52211;DHT22;38179;52.756;6.906;2024-03-22T08:54:51;10.10;99.90
52211;DHT22;38179;52.756;6.906;2024-03-22T08:57:17;10.00;99.90
52211;DHT22;38179;52.756;6.906;2024-03-22T08:59:43;10.10;99.90
52211;DHT22;38179;52.756;6.906;2024-03-22T09:02:09;10.00;99.90
52211;DHT22;38179;52.756;6.906;2024-03-22T09:04:34;10.00;99.90
52211;DHT22;38179;52.756;6.906;2024-03-22T09:07:00;10.00;99.90
52211;DHT22;38179;52.756;6.906;2024-03-22T09:09:25;10.00;99.90
52211;DHT22;38179;52.756;6.906;2024-03-22T09:11:51;10.00;99.90
52211;DHT22;38179;52.756;6.906;2024-03-22T09:14:17;10.00;99.90
52211;DHT22;38179;52.756;6.906;2024-03-22T09:16:42;10.00;99.90
52211;DHT22;38179;52.756;6.906;2024-03-22T09:19:08;9.90;99.90
52211;DHT22;38179;52.756;6.906;2024-03-22T09:21:35;9.90;99.90
52211;DHT22;38179;52.756;6.906;2024-03-22T09:24:01;9.90;99.90
52211;DHT22;38179;52.756;6.906;2024-03-22T09:26:28;9.90;99.90
52211;DHT22;38179;52.756;6.906;2024-03-22T09:28:54;9.80;99.90
52211;DHT22;38179;52.756;6.906;2024-03-22T09:31:20;9.80;99.90
52211;DHT22;38179;52.756;6.906;2024-03-22T09:33:45;9.80;99.90
52211;DHT22;38179;52.756;6.906;2024-03-22T09:36:11;9.80;99.90
52211;DHT22;38179;52.756;6.906;2024-03-22T09:38:37;9.80;99.90
52211;DHT22;38179;52.756;6.906;2024-03-22T09:41:03;9.70;99.90
52211;DHT22;38179;52.756;6.906;2024-03-22T09:43:30;9.70;99.90
52211;DHT22;38179;52.756;6.906;2024-03-22T09:45:58;9.70;99.90
52211;DHT22;38179;52.756;6.906;2024-03-22T09:48:24;9.70;99.90
52211;DHT22;38179;52.756;6.906;2024-03-22T09:50:50;9.80;99.90
52211;DHT22;38179;52.756;6.906;2024-03-22T09:53:19;9.70;99.90
52211;DHT22;38179;52.756;6.906;2024-03-22T09:55:48;9.70;99.90
52211;DHT22;38179;52.756;6.906;2024-03-22T09:58:15;9.70;99.90
52211;DHT22;38179;52.756;6.906;2024-03-22T10:00:42;9.70;99.90
52211;DHT22;38179;52.756;6.906;2024-03-22T10:03:10;9.70;99.90
52211;DHT22;38179;52.756;6.906;2024-03-22T10:05:36;9.80;99.90
52211;DHT22;38179;52.756;6.906;2024-03-22T10:08:02;9.80;99.90
52211;DHT22;38179;52.756;6.906;2024-03-22T10:10:28;9.70;99.90
52211;DHT22;38179;52.756;6.906;2024-03-22T10:12:54;9.80;99.90
52211;DHT22;38179;52.756;6.906;2024-03-22T10:15:20;9.80;99.90
52211;DHT22;38179;52.756;6.906;2024-03-22T10:17:45;9.80;99.90
52211;DHT22;38179;52.756;6.906;2024-03-22T10:20:14;9.80;99.90
52211;DHT22;38179;52.756;6.906;2024-03-22T10:22:56;9.80;99.90
52211;DHT22;38179;52.756;6.906;2024-03-22T10:25:26;9.80;99.90
52211;DHT22;38179;52.756;6.906;2024-03-22T10:27:54;9.90;99.90
52211;DHT22;38179;52.756;6.906;2024-03-22T10:30:22;9.80;99.90
52211;DHT22;38179;52.756;6.906;2024-03-22T10:32:48;9.80;99.90
52211;DHT22;38179;52.756;6.906;2024-03-22T10:35:15;9.80;99.90
52211;DHT22;38179;52.756;6.906;2024-03-22T10:37:42;9.80;99.90
52211;DHT22;38179;52.756;6.906;2024-03-22T10:40:09;9.80;99.90
52211;DHT22;38179;52.756;6.906;2024-03-22T10:42:37;9.80;99.90
52211;DHT22;38179;52.756;6.906;2024-03-22T10:45:03;9.80;99.90
52211;DHT22;38179;52.756;6.906;2024-03-22T10:47:31;9.90;99.90
52211;DHT22;38179;52.756;6.906;2024-03-22T10:50:10;9.80;99.90
52211;DHT22;38179;52.756;6.906;2024-03-22T10:52:46;9.80;99.90
52211;DHT22;38179;52.756;6.906;2024-03-22T10:55:21;9.80;99.90
52211;DHT22;38179;52.756;6.906;2024-03-22T10:57:48;9.80;99.90
52211;DHT22;38179;52.756;6.906;2024-03-22T11:00:14;9.70;99.90
52211;DHT22;38179;52.756;6.906;2024-03-22T11:02:44;9.70;99.90
52211;DHT22;38179;52.756;6.906;2024-03-22T11:05:17;9.70;99.90
52211;DHT22;38179;52.756;6.906;2024-03-22T11:07:44;9.80;99.90
52211;DHT22;38179;52.756;6.906;2024-03-22T11:10:12;9.70;99.90
52211;DHT22;38179;52.756;6.906;2024-03-22T11:12:39;9.80;99.90
52211;DHT22;38179;52.756;6.906;2024-03-22T11:15:05;9.70;99.90
52211;DHT22;38179;52.756;6.906;2024-03-22T11:17:31;9.70;99.90
52211;DHT22;38179;52.756;6.906;2024-03-22T11:19:57;9.80;99.90
52211;DHT22;38179;52.756;6.906;2024-03-22T11:22:23;9.80;99.90
52211;DHT22;38179;52.756;6.906;2024-03-22T11:24:50;9.80;99.90
52211;DHT22;38179;52.756;6.906;2024-03-22T11:27:16;9.80;99.90
52211;DHT22;38179;52.756;6.906;2024-03-22T11:29:41;9.80;99.90
52211;DHT22;38179;52.756;6.906;2024-03-22T11:32:09;9.80;99.90
52211;DHT22;38179;52.756;6.906;2024-03-22T11:34:38;9.80;99.90
52211;DHT22;38179;52.756;6.906;2024-03-22T11:37:08;9.80;99.90
52211;DHT22;38179;52.756;6.906;2024-03-22T11:39:36;9.80;99.90
52211;DHT22;38179;52.756;6.906;2024-03-22T11:42:08;9.70;99.90
52211;DHT22;38179;52.756;6.906;2024-03-22T11:44:35;9.80;99.90
52211;DHT22;38179;52.756;6.906;2024-03-22T11:47:02;9.70;99.90
52211;DHT22;38179;52.756;6.906;2024-03-22T11:49:28;10.50;99.90
52211;DHT22;38179;52.756;6.906;2024-03-22T11:51:56;9.80;99.90
52211;DHT22;38179;52.756;6.906;2024-03-22T11:54:22;9.80;99.90
52211;DHT22;38179;52.756;6.906;2024-03-22T11:56:49;9.80;99.90
52211;DHT22;38179;52.756;6.906;2024-03-22T11:59:18;9.80;99.90
52211;DHT22;38179;52.756;6.906;2024-03-22T12:01:44;9.90;99.90
52211;DHT22;38179;52.756;6.906;2024-03-22T12:04:11;9.90;99.90
52211;DHT22;38179;52.756;6.906;2024-03-22T12:06:44;9.90;99.90
52211;DHT22;38179;52.756;6.906;2024-03-22T12:09:11;9.90;99.90
52211;DHT22;38179;52.756;6.906;2024-03-22T12:11:39;9.90;99.90
52211;DHT22;38179;52.756;6.906;2024-03-22T12:14:05;9.90;99.90
52211;DHT22;38179;52.756;6.906;2024-03-22T12:16:31;10.00;99.90
52211;DHT22;38179;52.756;6.906;2024-03-22T12:18:57;9.90;99.90
52211;DHT22;38179;52.756;6.906;2024-03-22T12:21:23;9.90;99.90
52211;DHT22;38179;52.756;6.906;2024-03-22T12:23:51;10.10;99.90
52211;DHT22;38179;52.756;6.906;2024-03-22T12:26:16;10.10;99.90
52211;DHT22;38179;52.756;6.906;2024-03-22T12:28:42;10.00;99.90
52211;DHT22;38179;52.756;6.906;2024-03-22T12:31:09;10.00;99.90
52211;DHT22;38179;52.756;6.906;2024-03-22T12:33:36;10.00;99.90
52211;DHT22;38179;52.756;6.906;2024-03-22T12:36:03;10.00;99.90
52211;DHT22;38179;52.756;6.906;2024-03-22T12:38:29;10.00;99.90
52211;DHT22;38179;52.756;6.906;2024-03-22T12:40:55;9.90;99.90
52211;DHT22;38179;52.756;6.906;2024-03-22T12:43:20;9.90;99.90
52211;DHT22;38179;52.756;6.906;2024-03-22T12:45:46;9.90;99.90
52211;DHT22;38179;52.756;6.906;2024-03-22T12:48:12;9.80;99.90
52211;DHT22;38179;52.756;6.906;2024-03-22T12:50:38;9.80;99.90
52211;DHT22;38179;52.756;6.906;2024-03-22T12:53:04;9.80;99.90
52211;DHT22;38179;52.756;6.906;2024-03-22T12:55:30;9.80;99.90
52211;DHT22;38179;52.756;6.906;2024-03-22T12:57:58;9.70;99.90
52211;DHT22;38179;52.756;6.906;2024-03-22T13:00:24;9.80;99.90
52211;DHT22;38179;52.756;6.906;2024-03-22T13:02:50;9.80;99.90
52211;DHT22;38179;52.756;6.906;2024-03-22T13:05:16;9.80;99.90
52211;DHT22;38179;52.756;6.906;2024-03-22T13:07:42;9.80;99.90
52211;DHT22;38179;52.756;6.906;2024-03-22T13:10:08;9.70;99.90
52211;DHT22;38179;52.756;6.906;2024-03-22T13:12:40;9.70;99.90
52211;DHT22;38179;52.756;6.906;2024-03-22T13:15:06;9.80;99.90
52211;DHT22;38179;52.756;6.906;2024-03-22T13:17:35;9.70;99.90
52211;DHT22;38179;52.756;6.906;2024-03-22T13:20:01;9.70;99.90
52211;DHT22;38179;52.756;6.906;2024-03-22T13:22:26;9.80;99.90
52211;DHT22;38179;52.756;6.906;2024-03-22T13:24:52;9.80;99.90
52211;DHT22;38179;52.756;6.906;2024-03-22T13:27:20;9.80;99.90
52211;DHT22;38179;52.756;6.906;2024-03-22T13:29:48;9.80;99.90
52211;DHT22;38179;52.756;6.906;2024-03-22T13:32:15;9.70;99.90
52211;DHT22;38179;52.756;6.906;2024-03-22T13:34:41;9.60;99.90
52211;DHT22;38179;52.756;6.906;2024-03-22T13:37:08;9.50;99.90
52211;DHT22;38179;52.756;6.906;2024-03-22T13:39:34;9.40;99.90
52211;DHT22;38179;52.756;6.906;2024-03-22T13:42:00;9.40;99.90
52211;DHT22;38179;52.756;6.906;2024-03-22T13:44:26;9.40;99.90
52211;DHT22;38179;52.756;6.906;2024-03-22T13:46:52;9.30;99.90
52211;DHT22;38179;52.756;6.906;2024-03-22T13:49:19;9.30;99.90
52211;DHT22;38179;52.756;6.906;2024-03-22T13:51:47;9.20;99.90
52211;DHT22;38179;52.756;6.906;2024-03-22T13:54:13;9.20;99.90
52211;DHT22;38179;52.756;6.906;2024-03-22T13:56:39;9.20;99.90
52211;DHT22;38179;52.756;6.906;2024-03-22T13:59:06;9.10;99.90
52211;DHT22;38179;52.756;6.906;2024-03-22T14:01:37;9.10;99.90
52211;DHT22;38179;52.756;6.906;2024-03-22T14:04:03;9.10;99.90
52211;DHT22;38179;52.756;6.906;2024-03-22T14:06:32;9.10;99.90
52211;DHT22;38179;52.756;6.906;2024-03-22T14:08:58;9.00;99.90
52211;DHT22;38179;52.756;6.906;2024-03-22T14:11:28;9.10;99.90
52211;DHT22;38179;52.756;6.906;2024-03-22T14:13:59;9.00;99.90
52211;DHT22;38179;52.756;6.906;2024-03-22T14:16:24;9.00;99.90
52211;DHT22;38179;52.756;6.906;2024-03-22T14:18:50;9.00;99.90
52211;DHT22;38179;52.756;6.906;2024-03-22T14:21:17;9.10;99.90
52211;DHT22;38179;52.756;6.906;2024-03-22T14:23:47;9.10;99.90
52211;DHT22;38179;52.756;6.906;2024-03-22T14:26:13;9.10;99.90
52211;DHT22;38179;52.756;6.906;2024-03-22T14:28:39;9.10;99.90
52211;DHT22;38179;52.756;6.906;2024-03-22T14:31:06;9.10;99.90
52211;DHT22;38179;52.756;6.906;2024-03-22T14:33:34;9.10;99.90
52211;DHT22;38179;52.756;6.906;2024-03-22T14:36:01;9.10;99.90
52211;DHT22;38179;52.756;6.906;2024-03-22T14:38:27;9.10;99.90
52211;DHT22;38179;52.756;6.906;2024-03-22T14:40:53;9.10;99.90
52211;DHT22;38179;52.756;6.906;2024-03-22T14:43:20;9.10;99.90
52211;DHT22;38179;52.756;6.906;2024-03-22T14:45:45;9.10;99.90
52211;DHT22;38179;52.756;6.906;2024-03-22T14:48:11;9.10;99.90
52211;DHT22;38179;52.756;6.906;2024-03-22T14:50:40;9.20;99.90
52211;DHT22;38179;52.756;6.906;2024-03-22T14:53:05;9.20;99.90
52211;DHT22;38179;52.756;6.906;2024-03-22T14:55:31;9.20;99.90
52211;DHT22;38179;52.756;6.906;2024-03-22T14:57:57;9.20;99.90
52211;DHT22;38179;52.756;6.906;2024-03-22T15:00:23;9.20;99.90
52211;DHT22;38179;52.756;6.906;2024-03-22T15:02:52;9.20;99.90
52211;DHT22;38179;52.756;6.906;2024-03-22T15:05:18;9.20;99.90
52211;DHT22;38179;52.756;6.906;2024-03-22T15:07:44;9.20;99.90
52211;DHT22;38179;52.756;6.906;2024-03-22T15:10:09;9.20;99.90
52211;DHT22;38179;52.756;6.906;2024-03-22T15:12:35;9.20;99.90
52211;DHT22;38179;52.756;6.906;2024-03-22T15:15:01;9.30;99.90
52211;DHT22;38179;52.756;6.906;2024-03-22T15:17:26;9.30;99.90
52211;DHT22;38179;52.756;6.906;2024-03-22T15:19:53;9.30;99.90
52211;DHT22;38179;52.756;6.906;2024-03-22T15:22:20;9.30;99.90
52211;DHT22;38179;52.756;6.906;2024-03-22T15:24:50;9.30;99.90
52211;DHT22;38179;52.756;6.906;2024-03-22T15:27:17;9.30;99.90
52211;DHT22;38179;52.756;6.906;2024-03-22T15:29:42;9.40;99.90
52211;DHT22;38179;52.756;6.906;2024-03-22T15:34:40;9.30;99.90
52211;DHT22;38179;52.756;6.906;2024-03-22T15:37:05;9.40;99.90
52211;DHT22;38179;52.756;6.906;2024-03-22T15:39:31;9.40;99.90
52211;DHT22;38179;52.756;6.906;2024-03-22T15:41:57;9.40;99.90
52211;DHT22;38179;52.756;6.906;2024-03-22T15:44:23;9.30;99.90
52211;DHT22;38179;52.756;6.906;2024-03-22T15:46:48;9.30;99.90
52211;DHT22;38179;52.756;6.906;2024-03-22T15:49:15;9.30;99.90